createdAt,value
2022-10-22T00:01:52.345Z,15.15
2022-10-22T00:04:19.057Z,15.10
2022-10-22T00:06:45.514Z,15.13
2022-10-22T00:09:15.596Z,15.11
2022-10-22T00:11:42.717Z,15.09
2022-10-22T00:14:09.479Z,15.18
2022-10-22T00:16:35.916Z,15.23
2022-10-22T00:19:22.552Z,15.19
2022-10-22T00:22:10.099Z,15.17
2022-10-22T00:24:56.449Z,15.18
2022-10-22T00:27:43.165Z,15.16
2022-10-22T00:30:29.868Z,15.14
2022-10-22T00:33:16.293Z,15.17
2022-10-22T00:35:44.104Z,15.12
2022-10-22T00:38:10.497Z,15.16
2022-10-22T00:40:37.086Z,15.11
2022-10-22T00:43:04.573Z,15.08
2022-10-22T00:45:31.201Z,15.13
2022-10-22T00:48:02.142Z,15.12
2022-10-22T00:50:57.195Z,15.07
2022-10-22T00:53:31.861Z,15.01
2022-10-22T00:55:58.508Z,15.01
2022-10-22T00:58:31.443Z,15.03
2022-10-22T01:00:59.551Z,15.02
2022-10-22T01:03:26.196Z,15.00
2022-10-22T01:05:58.459Z,15.02
2022-10-22T01:08:49.270Z,15.01
2022-10-22T01:11:25.772Z,15.00
2022-10-22T01:14:23.839Z,14.92
2022-10-22T01:17:05.522Z,14.93
2022-10-22T01:20:24.779Z,14.93
2022-10-22T01:23:38.937Z,14.92
2022-10-22T01:26:18.902Z,14.87
2022-10-22T01:28:59.282Z,14.90
2022-10-22T01:31:30.754Z,14.84
2022-10-22T01:34:02.496Z,14.84
2022-10-22T01:36:31.975Z,14.86
2022-10-22T01:39:01.866Z,14.84
2022-10-22T01:41:29.554Z,14.81
2022-10-22T01:43:56.225Z,14.78
2022-10-22T01:46:24.912Z,14.84
2022-10-22T01:49:16.667Z,14.80
2022-10-22T01:52:05.601Z,14.80
2022-10-22T01:54:49.423Z,14.75
2022-10-22T01:57:41.503Z,14.75
2022-10-22T02:00:10.621Z,14.73
2022-10-22T02:02:56.521Z,14.70
2022-10-22T02:05:29.773Z,14.70
2022-10-22T02:08:03.004Z,14.63
2022-10-22T02:10:30.472Z,14.62
2022-10-22T02:13:02.732Z,14.59
2022-10-22T02:15:33.292Z,14.64
2022-10-22T02:18:03.049Z,14.59
2022-10-22T02:20:32.668Z,14.54
2022-10-22T02:23:00.458Z,14.56
2022-10-22T02:25:32.773Z,14.54
2022-10-22T02:28:14.722Z,14.54
2022-10-22T02:30:45.495Z,14.52
2022-10-22T02:33:18.566Z,14.47
2022-10-22T02:35:46.354Z,14.44
2022-10-22T02:38:13.871Z,14.46
2022-10-22T02:40:41.554Z,14.45
2022-10-22T02:43:08.040Z,14.38
2022-10-22T02:45:35.485Z,14.37
2022-10-22T02:48:02.580Z,14.40
2022-10-22T02:50:29.262Z,14.36
2022-10-22T02:52:55.739Z,14.41
2022-10-22T02:55:22.860Z,14.38
2022-10-22T02:57:49.281Z,14.37
2022-10-22T03:00:16.215Z,14.35
2022-10-22T03:02:42.611Z,14.36
2022-10-22T03:05:09.394Z,14.37
2022-10-22T03:07:36.357Z,14.32
2022-10-22T03:10:03.467Z,14.35
2022-10-22T03:12:30.115Z,14.33
2022-10-22T03:14:56.733Z,14.32
2022-10-22T03:17:23.483Z,14.34
2022-10-22T03:19:50.313Z,14.39
2022-10-22T03:22:27.399Z,14.36
2022-10-22T03:24:58.249Z,14.38
2022-10-22T03:27:27.203Z,14.38
2022-10-22T03:29:54.326Z,14.40
2022-10-22T03:32:20.999Z,14.38
2022-10-22T03:34:47.449Z,14.35
2022-10-22T03:37:14.429Z,14.39
2022-10-22T03:39:41.108Z,14.41
2022-10-22T03:42:08.583Z,14.44
2022-10-22T03:44:38.423Z,14.46
2022-10-22T03:47:05.223Z,14.41
2022-10-22T03:49:31.787Z,14.40
2022-10-22T03:52:01.021Z,14.35
2022-10-22T03:54:27.469Z,14.32
2022-10-22T03:56:54.610Z,14.27
2022-10-22T03:59:20.990Z,14.33
2022-10-22T04:01:47.831Z,14.30
2022-10-22T04:04:14.445Z,14.22
2022-10-22T04:06:41.078Z,14.18
2022-10-22T04:09:08.290Z,14.22
2022-10-22T04:11:34.795Z,14.22
2022-10-22T04:14:01.533Z,14.16
2022-10-22T04:16:32.822Z,14.08
2022-10-22T04:19:02.717Z,14.00
2022-10-22T04:21:29.356Z,14.07
2022-10-22T04:23:56.520Z,13.99
2022-10-22T04:26:23.677Z,14.01
2022-10-22T04:28:51.851Z,13.95
2022-10-22T04:31:21.659Z,13.91
2022-10-22T04:33:51.836Z,13.91
2022-10-22T04:36:19.405Z,13.87
2022-10-22T04:38:48.138Z,13.86
2022-10-22T04:41:18.607Z,13.84
2022-10-22T04:43:46.253Z,13.85
2022-10-22T04:46:14.003Z,13.81
2022-10-22T04:48:42.483Z,13.78
2022-10-22T04:51:12.057Z,13.75
2022-10-22T04:53:40.386Z,13.71
2022-10-22T04:56:22.071Z,13.70
2022-10-22T04:58:50.632Z,13.70
2022-10-22T05:01:23.099Z,13.70
2022-10-22T05:03:51.624Z,13.72
2022-10-22T05:06:20.580Z,13.75
2022-10-22T05:08:48.340Z,13.72
2022-10-22T05:11:18.064Z,13.74
2022-10-22T05:13:44.448Z,13.73
2022-10-22T05:16:11.871Z,13.69
2022-10-22T05:18:40.714Z,13.69
2022-10-22T05:21:13.291Z,13.69
2022-10-22T05:23:40.256Z,13.72
2022-10-22T05:26:09.069Z,13.64
2022-10-22T05:28:36.732Z,13.66
2022-10-22T05:31:03.946Z,13.68
2022-10-22T05:33:32.369Z,13.66
2022-10-22T05:35:59.999Z,13.67
2022-10-22T05:38:27.448Z,13.71
2022-10-22T05:41:03.237Z,13.69
2022-10-22T05:43:29.988Z,13.66
2022-10-22T05:46:01.428Z,13.62
2022-10-22T05:48:27.864Z,13.61
2022-10-22T05:50:55.075Z,13.61
2022-10-22T05:53:22.119Z,13.59
2022-10-22T05:55:48.484Z,13.59
2022-10-22T05:58:15.497Z,13.62
2022-10-22T06:00:42.129Z,13.65
2022-10-22T06:03:08.489Z,13.62
2022-10-22T06:05:36.422Z,13.59
2022-10-22T06:08:04.279Z,13.62
2022-10-22T06:10:31.349Z,13.58
2022-10-22T06:12:57.773Z,13.62
2022-10-22T06:15:24.786Z,13.59
2022-10-22T06:17:51.361Z,13.59
2022-10-22T06:20:18.257Z,13.63
2022-10-22T06:22:44.695Z,13.68
2022-10-22T06:25:12.448Z,13.75
2022-10-22T06:27:38.854Z,13.84
2022-10-22T06:30:05.758Z,13.83
2022-10-22T06:32:32.404Z,13.86
2022-10-22T06:34:58.812Z,13.92
2022-10-22T06:37:25.488Z,13.98
2022-10-22T06:39:51.882Z,14.04
2022-10-22T06:42:18.519Z,14.04
2022-10-22T06:44:47.806Z,14.07
2022-10-22T06:47:14.314Z,14.12
2022-10-22T06:49:40.820Z,14.13
2022-10-22T06:52:07.199Z,14.14
2022-10-22T06:54:33.674Z,14.20
2022-10-22T06:57:00.402Z,14.19
2022-10-22T06:59:26.819Z,14.14
2022-10-22T07:01:53.691Z,14.17
2022-10-22T07:04:20.048Z,14.20
2022-10-22T07:06:46.725Z,14.18
2022-10-22T07:09:13.252Z,14.20
2022-10-22T07:11:45.802Z,14.26
2022-10-22T07:14:13.517Z,14.28
2022-10-22T07:16:42.998Z,14.26
2022-10-22T07:19:09.726Z,14.33
2022-10-22T07:21:36.448Z,14.51
2022-10-22T07:24:03.252Z,14.63
2022-10-22T07:26:32.405Z,14.61
2022-10-22T07:29:00.697Z,14.75
2022-10-22T07:31:27.681Z,14.76
2022-10-22T07:33:54.218Z,14.93
2022-10-22T07:36:20.753Z,15.13
2022-10-22T07:38:52.790Z,15.18
2022-10-22T07:41:19.582Z,15.08
2022-10-22T07:43:46.193Z,15.07
2022-10-22T07:46:12.594Z,15.03
2022-10-22T07:48:39.312Z,15.27
2022-10-22T07:51:06.671Z,15.29
2022-10-22T07:53:33.765Z,15.37
2022-10-22T07:56:01.074Z,15.40
2022-10-22T07:58:27.498Z,15.35
2022-10-22T08:01:01.064Z,15.28
2022-10-22T08:03:29.098Z,15.33
2022-10-22T08:05:56.380Z,15.55
2022-10-22T08:08:27.069Z,15.85
2022-10-22T08:10:59.121Z,15.88
2022-10-22T08:13:26.231Z,15.86
2022-10-22T08:15:56.573Z,16.10
2022-10-22T08:18:25.556Z,16.41
2022-10-22T08:20:52.753Z,16.29
2022-10-22T08:23:21.209Z,16.52
2022-10-22T08:25:51.189Z,16.81
2022-10-22T08:28:21.158Z,16.81
2022-10-22T08:30:49.183Z,16.75
2022-10-22T08:33:15.830Z,16.71
2022-10-22T08:35:42.256Z,16.83
2022-10-22T08:38:09.172Z,16.98
2022-10-22T08:40:39.754Z,16.96
2022-10-22T08:43:13.144Z,17.13
2022-10-22T08:45:45.249Z,17.37
2022-10-22T08:48:54.890Z,17.37
2022-10-22T08:51:25.584Z,17.26
2022-10-22T08:54:08.749Z,17.35
2022-10-22T08:56:37.058Z,17.15
2022-10-22T08:59:37.817Z,17.22
2022-10-22T09:02:20.199Z,17.37
2022-10-22T09:04:58.365Z,17.96
2022-10-22T09:07:24.969Z,17.79
2022-10-22T09:09:53.776Z,17.74
2022-10-22T09:12:28.682Z,17.62
2022-10-22T09:14:55.203Z,18.01
2022-10-22T09:17:35.804Z,17.86
2022-10-22T09:20:45.252Z,17.76
2022-10-22T09:23:41.213Z,18.01
2022-10-22T09:26:15.575Z,18.00
2022-10-22T09:28:43.181Z,18.06
2022-10-22T09:31:14.314Z,18.33
2022-10-22T09:33:43.007Z,18.17
2022-10-22T09:36:16.976Z,18.00
2022-10-22T09:38:52.407Z,18.45
2022-10-22T09:41:29.704Z,18.42
2022-10-22T09:43:56.624Z,18.52
2022-10-22T09:46:27.256Z,18.33
2022-10-22T09:49:12.304Z,18.76
2022-10-22T09:51:48.408Z,18.77
2022-10-22T09:54:18.827Z,18.40
2022-10-22T09:56:52.624Z,18.81
2022-10-22T09:59:26.831Z,19.21
2022-10-22T10:02:08.515Z,19.41
2022-10-22T10:04:53.617Z,19.06
2022-10-22T10:07:26.326Z,19.01
2022-10-22T10:09:53.910Z,19.60
2022-10-22T10:12:39.387Z,19.76
2022-10-22T10:15:11.742Z,19.46
2022-10-22T10:18:16.030Z,19.63
2022-10-22T10:20:56.310Z,19.70
2022-10-22T10:23:44.269Z,19.00
2022-10-22T10:26:17.551Z,19.46
2022-10-22T10:28:51.619Z,19.18
2022-10-22T10:31:32.043Z,19.29
2022-10-22T10:34:46.676Z,19.68
2022-10-22T10:37:17.310Z,19.92
2022-10-22T10:39:52.938Z,20.51
2022-10-22T10:42:49.525Z,19.96
2022-10-22T10:45:44.691Z,20.46
2022-10-22T10:48:34.281Z,20.53
2022-10-22T10:51:21.336Z,19.97
2022-10-22T10:53:55.563Z,20.82
2022-10-22T10:56:41.358Z,20.75
2022-10-22T10:59:26.073Z,21.36
2022-10-22T11:01:59.749Z,21.55
2022-10-22T11:04:38.976Z,21.41
2022-10-22T11:07:16.867Z,21.60
2022-10-22T11:09:59.982Z,21.46
2022-10-22T11:12:43.002Z,21.49
2022-10-22T11:15:31.985Z,21.01
2022-10-22T11:18:11.350Z,20.69
2022-10-22T11:21:05.897Z,20.80
2022-10-22T11:23:48.116Z,21.88
2022-10-22T11:26:27.082Z,21.86
2022-10-22T11:28:54.777Z,22.39
2022-10-22T11:31:24.771Z,22.16
2022-10-22T11:34:04.834Z,22.11
2022-10-22T11:36:38.713Z,22.28
2022-10-22T11:39:05.379Z,22.51
2022-10-22T11:41:34.383Z,22.58
2022-10-22T11:44:07.366Z,21.81
2022-10-22T11:46:46.841Z,21.94
2022-10-22T11:49:13.402Z,22.38
2022-10-22T11:51:42.225Z,22.69
2022-10-22T11:54:30.279Z,22.96
2022-10-22T11:57:14.861Z,22.19
2022-10-22T11:59:48.808Z,22.70
2022-10-22T12:02:27.564Z,23.01
2022-10-22T12:05:22.541Z,22.91
2022-10-22T12:07:57.026Z,22.52
2022-10-22T12:10:33.996Z,21.75
2022-10-22T12:13:25.528Z,21.81
2022-10-22T12:15:57.009Z,21.86
2022-10-22T12:18:32.760Z,22.35
2022-10-22T12:20:59.842Z,22.69
2022-10-22T12:23:34.047Z,22.40
2022-10-22T12:26:01.067Z,22.93
2022-10-22T12:28:27.699Z,22.80
2022-10-22T12:30:54.094Z,22.20
2022-10-22T12:33:23.384Z,21.62
2022-10-22T12:35:53.219Z,21.62
2022-10-22T12:38:22.626Z,21.81
2022-10-22T12:40:51.286Z,21.91
2022-10-22T12:43:23.777Z,21.35
2022-10-22T12:45:51.063Z,21.86
2022-10-22T12:48:22.078Z,21.91
2022-10-22T12:50:52.574Z,21.86
2022-10-22T12:53:22.404Z,21.62
2022-10-22T12:55:52.618Z,21.86
2022-10-22T12:58:22.791Z,21.72
2022-10-22T13:00:57.475Z,22.23
2022-10-22T13:03:32.171Z,21.95
2022-10-22T13:06:21.763Z,21.48
2022-10-22T13:09:05.853Z,21.61
2022-10-22T13:11:38.227Z,21.38
2022-10-22T13:14:15.660Z,22.23
2022-10-22T13:16:42.092Z,22.02
2022-10-22T13:19:45.880Z,22.67
2022-10-22T13:22:52.879Z,22.88
2022-10-22T13:25:23.695Z,23.47
2022-10-22T13:28:01.504Z,23.03
2022-10-22T13:30:37.090Z,22.99
2022-10-22T13:33:26.665Z,22.58
2022-10-22T13:35:54.703Z,22.75
2022-10-22T13:38:24.817Z,22.47
2022-10-22T13:40:51.929Z,22.16
2022-10-22T13:43:19.544Z,22.09
2022-10-22T13:45:48.874Z,21.61
2022-10-22T13:48:18.986Z,21.68
2022-10-22T13:50:46.618Z,21.31
2022-10-22T13:53:19.419Z,21.11
2022-10-22T13:55:46.536Z,21.35
2022-10-22T13:58:18.820Z,20.99
2022-10-22T14:00:51.479Z,21.20
2022-10-22T14:03:21.285Z,21.17
2022-10-22T14:05:48.785Z,21.17
2022-10-22T14:08:18.957Z,21.10
2022-10-22T14:10:46.196Z,21.01
2022-10-22T14:13:14.801Z,20.72
2022-10-22T14:15:42.361Z,20.73
2022-10-22T14:18:13.029Z,20.95
2022-10-22T14:20:42.190Z,20.96
2022-10-22T14:23:15.044Z,21.06
2022-10-22T14:25:42.211Z,20.98
2022-10-22T14:28:11.242Z,20.90
2022-10-22T14:30:38.945Z,21.17
2022-10-22T14:33:16.093Z,21.33
2022-10-22T14:35:42.828Z,21.29
2022-10-22T14:38:10.614Z,21.06
2022-10-22T14:40:40.214Z,21.18
2022-10-22T14:43:07.273Z,21.22
2022-10-22T14:45:33.645Z,21.13
2022-10-22T14:48:02.075Z,21.20
2022-10-22T14:50:28.507Z,21.03
2022-10-22T14:52:57.532Z,21.02
2022-10-22T14:55:26.063Z,21.11
2022-10-22T14:57:53.496Z,21.23
2022-10-22T15:00:20.817Z,21.22
2022-10-22T15:02:48.431Z,21.27
2022-10-22T15:05:17.244Z,21.24
2022-10-22T15:07:45.176Z,21.00
2022-10-22T15:10:12.192Z,20.97
2022-10-22T15:12:38.686Z,20.79
2022-10-22T15:15:06.111Z,20.73
2022-10-22T15:17:32.503Z,20.51
2022-10-22T15:20:05.349Z,20.63
2022-10-22T15:22:35.483Z,20.65
2022-10-22T15:25:07.834Z,20.44
2022-10-22T15:27:34.253Z,20.38
2022-10-22T15:30:04.584Z,20.26
2022-10-22T15:32:33.449Z,20.15
2022-10-22T15:35:03.159Z,20.11
2022-10-22T15:37:30.736Z,19.95
2022-10-22T15:39:57.598Z,20.02
2022-10-22T15:42:24.674Z,19.94
2022-10-22T15:44:58.127Z,19.80
2022-10-22T15:47:29.520Z,19.73
2022-10-22T15:49:57.159Z,19.78
2022-10-22T15:52:24.096Z,19.55
2022-10-22T15:54:50.895Z,19.59
2022-10-22T15:57:17.627Z,19.51
2022-10-22T15:59:44.200Z,19.53
2022-10-22T16:02:11.422Z,19.41
2022-10-22T16:04:39.080Z,19.35
2022-10-22T16:07:05.828Z,19.37
2022-10-22T16:09:33.003Z,19.35
2022-10-22T16:11:59.423Z,19.28
2022-10-22T16:14:28.806Z,19.30
2022-10-22T16:16:56.553Z,19.28
2022-10-22T16:19:24.687Z,19.26
2022-10-22T16:21:54.143Z,19.09
2022-10-22T16:24:21.858Z,18.98
2022-10-22T16:26:48.954Z,18.83
2022-10-22T16:29:15.518Z,18.82
2022-10-22T16:31:43.532Z,18.65
2022-10-22T16:34:10.561Z,18.53
2022-10-22T16:36:38.723Z,18.42
2022-10-22T16:39:06.163Z,18.39
2022-10-22T16:41:36.541Z,18.22
2022-10-22T16:44:04.765Z,18.07
2022-10-22T16:46:32.239Z,18.01
2022-10-22T16:49:00.864Z,17.92
2022-10-22T16:51:28.455Z,17.73
2022-10-22T16:53:56.988Z,17.76
2022-10-22T16:56:25.433Z,17.68
2022-10-22T16:58:54.918Z,17.67
2022-10-22T17:01:24.189Z,17.60
2022-10-22T17:03:50.949Z,17.50
2022-10-22T17:06:17.344Z,17.40
2022-10-22T17:08:43.999Z,17.41
2022-10-22T17:11:12.998Z,17.37
2022-10-22T17:13:43.689Z,17.25
2022-10-22T17:16:13.299Z,17.20
2022-10-22T17:18:40.823Z,17.16
2022-10-22T17:21:09.666Z,17.14
2022-10-22T17:23:36.704Z,17.14
2022-10-22T17:26:08.593Z,17.14
2022-10-22T17:28:36.596Z,17.02
2022-10-22T17:31:10.829Z,17.00
2022-10-22T17:33:37.871Z,16.90
2022-10-22T17:36:12.944Z,16.86
2022-10-22T17:38:41.496Z,16.77
2022-10-22T17:41:17.599Z,16.68
2022-10-22T17:46:18.716Z,16.60
2022-10-22T17:48:49.323Z,16.53
2022-10-22T17:51:17.029Z,16.39
2022-10-22T17:53:46.051Z,16.38
2022-10-22T17:56:15.975Z,16.40
2022-10-22T17:58:44.783Z,16.37
2022-10-22T18:01:35.738Z,16.32
2022-10-22T18:04:04.960Z,16.27
2022-10-22T18:06:32.785Z,16.17
2022-10-22T18:08:59.782Z,16.14
2022-10-22T18:11:27.777Z,16.05
2022-10-22T18:13:56.602Z,15.88
2022-10-22T18:16:23.576Z,15.81
2022-10-22T18:18:55.382Z,15.77
2022-10-22T18:21:23.786Z,15.79
2022-10-22T18:23:50.492Z,15.65
2022-10-22T18:26:19.316Z,15.68
2022-10-22T18:28:50.979Z,15.66
2022-10-22T18:31:22.993Z,15.51
2022-10-22T18:33:49.988Z,15.46
2022-10-22T18:36:19.343Z,15.39
2022-10-22T18:39:02.815Z,15.40
2022-10-22T18:41:30.842Z,15.36
2022-10-22T18:44:00.247Z,15.32
2022-10-22T18:46:28.888Z,15.27
2022-10-22T18:48:56.759Z,15.18
2022-10-22T18:51:25.264Z,15.15
2022-10-22T18:54:05.389Z,15.19
2022-10-22T18:56:41.066Z,15.06
2022-10-22T18:59:16.548Z,15.08
2022-10-22T19:01:43.210Z,15.06
2022-10-22T19:04:09.670Z,15.00
2022-10-22T19:06:37.082Z,14.93
2022-10-22T19:09:04.739Z,14.94
2022-10-22T19:11:32.205Z,14.80
2022-10-22T19:13:58.559Z,14.82
2022-10-22T19:16:27.029Z,14.81
2022-10-22T19:19:00.120Z,14.78
2022-10-22T19:21:26.928Z,14.87
2022-10-22T19:23:57.542Z,14.78
2022-10-22T19:26:26.336Z,14.71
2022-10-22T19:28:53.923Z,14.78
2022-10-22T19:31:22.680Z,14.77
2022-10-22T19:33:50.442Z,14.71
2022-10-22T19:36:19.312Z,14.68
2022-10-22T19:38:48.528Z,14.71
2022-10-22T19:41:21.108Z,14.68
2022-10-22T19:43:49.999Z,14.62
2022-10-22T19:46:17.476Z,14.66
2022-10-22T19:51:19.691Z,14.55
2022-10-22T19:53:47.387Z,14.59
2022-10-22T19:56:18.042Z,14.57
2022-10-22T19:58:44.856Z,14.58
2022-10-22T20:01:13.334Z,14.60
2022-10-22T20:03:40.531Z,14.60
2022-10-22T20:06:09.409Z,14.56
2022-10-22T20:08:37.913Z,14.56
2022-10-22T20:11:06.843Z,14.54
2022-10-22T20:13:34.793Z,14.45
2022-10-22T20:16:01.635Z,14.38
2022-10-22T20:18:28.503Z,14.46
2022-10-22T20:20:55.115Z,14.50
2022-10-22T20:23:21.714Z,14.45
2022-10-22T20:25:48.160Z,14.48
2022-10-22T20:28:14.631Z,14.47
2022-10-22T20:30:45.159Z,14.41
2022-10-22T20:33:14.771Z,14.35
2022-10-22T20:35:42.351Z,14.37
2022-10-22T20:38:13.372Z,14.25
2022-10-22T20:40:40.052Z,14.20
2022-10-22T20:43:09.495Z,14.23
2022-10-22T20:45:38.184Z,14.22
2022-10-22T20:48:05.121Z,14.16
2022-10-22T20:50:32.087Z,14.18
2022-10-22T20:52:59.464Z,14.24
2022-10-22T20:55:27.279Z,14.22
2022-10-22T20:57:53.938Z,14.27
2022-10-22T21:00:20.460Z,14.23
2022-10-22T21:02:46.892Z,14.23
2022-10-22T21:05:13.576Z,14.23
2022-10-22T21:07:40.493Z,14.22
2022-10-22T21:10:08.053Z,14.23
2022-10-22T21:12:34.545Z,14.21
2022-10-22T21:15:01.362Z,14.22
2022-10-22T21:17:27.746Z,14.22
2022-10-22T21:19:54.296Z,14.22
2022-10-22T21:22:20.678Z,14.14
2022-10-22T21:24:48.143Z,14.13
2022-10-22T21:27:14.544Z,14.14
2022-10-22T21:29:40.963Z,14.20
2022-10-22T21:32:07.408Z,14.14
2022-10-22T21:34:38.189Z,14.13
2022-10-22T21:37:05.606Z,14.20
2022-10-22T21:39:32.294Z,14.18
2022-10-22T21:41:58.754Z,14.18
2022-10-22T21:44:25.349Z,14.18
2022-10-22T21:46:51.787Z,14.15
2022-10-22T21:49:18.735Z,14.14
2022-10-22T21:51:45.131Z,14.14
2022-10-22T21:54:12.970Z,14.16
2022-10-22T21:56:39.828Z,14.13
2022-10-22T21:59:07.118Z,14.09
2022-10-22T22:01:34.233Z,14.12
2022-10-22T22:04:01.256Z,14.15
2022-10-22T22:06:33.058Z,14.14
2022-10-22T22:09:00.875Z,14.11
2022-10-22T22:11:28.488Z,14.12
2022-10-22T22:13:56.261Z,14.05
2022-10-22T22:16:28.269Z,14.07
2022-10-22T22:19:01.573Z,14.13
2022-10-22T22:21:29.672Z,14.10
2022-10-22T22:23:57.356Z,14.12
2022-10-22T22:26:28.716Z,14.14
2022-10-22T22:28:58.068Z,14.12
2022-10-22T22:31:29.483Z,14.13
2022-10-22T22:34:03.933Z,14.11
2022-10-22T22:36:39.567Z,14.08
2022-10-22T22:39:08.584Z,14.07
2022-10-22T22:41:35.226Z,14.04
2022-10-22T22:44:01.742Z,14.03
2022-10-22T22:46:28.475Z,14.04
2022-10-22T22:48:55.233Z,14.05
2022-10-22T22:51:21.840Z,14.06
2022-10-22T22:53:48.259Z,13.99
2022-10-22T22:56:20.107Z,14.00
2022-10-22T22:58:47.701Z,13.97
2022-10-22T23:01:22.063Z,13.92
2022-10-22T23:03:56.981Z,13.89
2022-10-22T23:06:25.907Z,13.89
2022-10-22T23:08:54.167Z,13.90
2022-10-22T23:11:22.454Z,13.89
2022-10-22T23:13:52.794Z,13.88
2022-10-22T23:16:22.226Z,13.81
2022-10-22T23:18:49.770Z,13.81
2022-10-22T23:21:19.698Z,13.81
2022-10-22T23:23:52.743Z,13.78
2022-10-22T23:26:25.817Z,13.80
2022-10-22T23:28:52.823Z,13.83
2022-10-22T23:31:20.287Z,13.83
2022-10-22T23:33:47.579Z,13.84
2022-10-22T23:36:14.505Z,13.88
2022-10-22T23:38:41.959Z,13.83
2022-10-22T23:41:09.254Z,13.84
2022-10-22T23:43:37.897Z,13.78
2022-10-22T23:46:05.792Z,13.76
2022-10-22T23:48:32.780Z,13.78
2022-10-22T23:51:05.342Z,13.79
2022-10-22T23:53:32.153Z,13.75
2022-10-22T23:56:03.644Z,13.71
2022-10-22T23:58:30.311Z,13.67
